createdAt,value
2022-09-10T00:09:45.359Z,26.10
2022-09-10T00:19:51.235Z,22.60
2022-09-10T00:29:57.348Z,21.50
2022-09-10T00:40:03.571Z,24.00
2022-09-10T00:50:18.629Z,24.30
2022-09-10T01:00:24.660Z,24.30
2022-09-10T01:10:34.534Z,24.80
2022-09-10T01:20:56.162Z,23.00
2022-09-10T01:31:11.410Z,25.10
2022-09-10T01:41:17.199Z,23.90
2022-09-10T01:51:36.983Z,27.20
2022-09-10T02:01:48.979Z,24.30
2022-09-10T02:11:56.328Z,22.50
2022-09-10T02:22:02.007Z,24.80
2022-09-10T02:32:08.272Z,25.00
2022-09-10T02:42:17.617Z,24.10
2022-09-10T02:52:23.261Z,26.00
2022-09-10T03:02:28.978Z,30.00
2022-09-10T03:12:34.629Z,29.00
2022-09-10T03:22:40.281Z,30.00
2022-09-10T03:32:45.900Z,31.30
2022-09-10T03:42:51.529Z,31.40
2022-09-10T03:52:57.125Z,30.20
2022-09-10T04:03:02.835Z,32.30
2022-09-10T04:13:09.284Z,33.00
2022-09-10T04:23:14.917Z,30.20
2022-09-10T04:33:20.657Z,31.70
2022-09-10T04:43:26.613Z,29.60
2022-09-10T04:53:32.463Z,29.90
2022-09-10T05:03:38.180Z,30.60
2022-09-10T05:13:43.993Z,30.10
2022-09-10T05:23:49.616Z,27.10
2022-09-10T05:33:55.877Z,24.50
2022-09-10T05:44:02.007Z,24.50
2022-09-10T05:54:08.203Z,22.70
2022-09-10T06:04:13.825Z,25.20
2022-09-10T06:14:20.399Z,23.20
2022-09-10T06:24:27.055Z,21.40
2022-09-10T06:34:32.675Z,22.50
2022-09-10T06:44:39.553Z,21.40
2022-09-10T06:54:45.504Z,21.80
2022-09-10T07:04:51.174Z,13.10
2022-09-10T07:14:56.780Z,12.90
2022-09-10T07:25:02.363Z,11.60
2022-09-10T07:35:09.393Z,8.30
2022-09-10T07:45:16.273Z,8.10
2022-09-10T07:55:23.364Z,7.20
2022-09-10T08:05:29.904Z,7.80
2022-09-10T08:15:36.131Z,7.60
2022-09-10T08:25:49.962Z,7.00
2022-09-10T08:36:00.406Z,5.10
2022-09-10T08:46:15.191Z,4.70
2022-09-10T08:56:23.384Z,4.90
2022-09-10T09:06:35.701Z,3.40
2022-09-10T09:16:57.263Z,3.40
2022-09-10T09:27:10.173Z,3.60
2022-09-10T09:37:22.408Z,4.60
2022-09-10T09:47:28.135Z,5.40
2022-09-10T09:57:33.904Z,5.00
2022-09-10T10:07:40.121Z,3.90
2022-09-10T10:17:45.818Z,4.30
2022-09-10T10:27:54.025Z,3.80
2022-09-10T10:38:17.427Z,4.10
2022-09-10T10:48:31.905Z,5.00
2022-09-10T10:59:00.801Z,5.10
2022-09-10T11:09:14.031Z,5.40
2022-09-10T11:19:28.548Z,6.70
2022-09-10T11:29:41.623Z,6.80
2022-09-10T11:39:52.506Z,7.10
2022-09-10T11:50:02.833Z,7.30
2022-09-10T12:00:16.239Z,7.30
2022-09-10T12:10:31.794Z,7.70
2022-09-10T12:20:43.119Z,7.50
2022-09-10T12:31:01.264Z,6.80
2022-09-10T12:41:12.314Z,7.00
2022-09-10T12:51:32.032Z,6.80
2022-09-10T13:01:46.412Z,7.20
2022-09-10T13:11:55.625Z,5.80
2022-09-10T13:22:01.465Z,7.60
2022-09-10T13:32:15.059Z,6.30
2022-09-10T13:42:35.734Z,6.80
2022-09-10T13:52:45.278Z,5.70
2022-09-10T14:02:52.826Z,6.50
2022-09-10T14:13:00.276Z,6.40
2022-09-10T14:23:08.116Z,8.30
2022-09-10T14:33:30.866Z,8.00
2022-09-10T14:43:39.007Z,7.80
2022-09-10T14:53:45.878Z,8.00
2022-09-10T15:03:51.553Z,8.20
2022-09-10T15:13:59.403Z,8.40
2022-09-10T15:24:05.927Z,9.70
2022-09-10T15:34:12.619Z,11.10
2022-09-10T15:44:18.382Z,14.70
2022-09-10T15:54:24.167Z,15.40
2022-09-10T16:04:33.860Z,16.20
2022-09-10T16:14:44.538Z,15.80
2022-09-10T16:24:50.248Z,17.90
2022-09-10T16:34:56.169Z,17.70
2022-09-10T16:45:01.752Z,17.10
2022-09-10T16:55:08.793Z,19.10
2022-09-10T17:05:14.454Z,15.80
2022-09-10T17:15:20.382Z,16.40
2022-09-10T17:25:26.003Z,15.30
2022-09-10T17:35:32.459Z,16.00
2022-09-10T17:45:40.734Z,15.80
2022-09-10T18:05:50.461Z,15.60
2022-09-10T18:15:56.131Z,13.90
2022-09-10T18:26:02.252Z,15.10
2022-09-10T18:36:15.457Z,16.20
2022-09-10T18:46:23.761Z,16.60
2022-09-10T19:06:38.055Z,14.50
2022-09-10T19:16:43.788Z,15.50
2022-09-10T19:26:49.466Z,15.90
2022-09-10T19:36:55.286Z,15.90
2022-09-10T19:47:01.044Z,17.20
2022-09-10T19:57:06.965Z,15.30
2022-09-10T20:07:12.877Z,17.50
2022-09-10T20:17:18.570Z,17.50
2022-09-10T20:27:24.943Z,18.60
2022-09-10T20:37:30.611Z,17.70
2022-09-10T20:47:42.970Z,21.20
2022-09-10T20:57:48.980Z,21.30
2022-09-10T21:07:54.765Z,21.50
2022-09-10T21:18:00.436Z,27.70
2022-09-10T21:28:06.468Z,29.60
2022-09-10T21:38:12.706Z,27.90
2022-09-10T21:48:18.351Z,26.30
2022-09-10T21:58:24.457Z,25.10
2022-09-10T22:08:30.114Z,22.50
2022-09-10T22:18:36.269Z,19.70
2022-09-10T22:28:42.728Z,20.20
2022-09-10T22:38:51.656Z,20.60
2022-09-10T22:48:57.889Z,21.70
2022-09-10T22:59:04.029Z,22.00
2022-09-10T23:09:12.869Z,20.60
2022-09-10T23:19:20.152Z,20.60
2022-09-10T23:29:25.807Z,21.00
2022-09-10T23:39:31.629Z,18.30
2022-09-10T23:49:37.283Z,16.80
2022-09-10T23:59:42.914Z,18.20
